Time;durP1;ratioP1;P1;durP2;ratioP2;P2;SDS_P1;SDS_P2;PMS_P1;PMS_P2;Temp;Humidity;BMP_temperature;BMP_pressure;BME280_temperature;BME280_humidity;BME280_pressure;Samples;Min_cycle;Max_cycle;Signal;HPM_P1;HPM_P2
2022/10/10 00:02:09;;;;;;;2.25;1.90;;;18.00;55.10;;;;;;5089463;28;47634;-74
2022/10/10 00:04:36;;;;;;;2.25;1.95;;;18.00;55.10;;;;;;5089563;28;45386;-74
2022/10/10 00:07:03;;;;;;;1.77;1.67;;;18.00;55.10;;;;;;5089524;28;45297;-74
2022/10/10 00:09:30;;;;;;;1.58;1.48;;;18.00;55.10;;;;;;5089864;28;45399;-74
2022/10/10 00:11:57;;;;;;;2.30;2.10;;;18.00;55.10;;;;;;5088875;28;45193;-74
2022/10/10 00:14:24;;;;;;;1.83;1.73;;;18.00;55.10;;;;;;5089405;28;45214;-74
2022/10/10 00:16:50;;;;;;;1.92;1.70;;;18.00;55.10;;;;;;5089525;28;45329;-74
2022/10/10 00:19:18;;;;;;;2.00;1.83;;;18.00;55.10;;;;;;5089641;28;45352;-74
2022/10/10 00:21:45;;;;;;;1.70;1.60;;;18.00;55.10;;;;;;5089039;28;45251;-73
2022/10/10 00:24:12;;;;;;;2.30;2.10;;;18.00;55.10;;;;;;5088545;28;45189;-74
2022/10/10 00:26:39;;;;;;;2.05;1.80;;;18.00;55.10;;;;;;5089356;28;45272;-74
2022/10/10 00:29:06;;;;;;;1.95;1.60;;;18.00;55.10;;;;;;5089382;28;45430;-74
2022/10/10 00:31:33;;;;;;;2.80;1.70;;;18.00;55.10;;;;;;5089107;28;47515;-74
2022/10/10 00:33:59;;;;;;;2.22;1.90;;;18.00;55.10;;;;;;5088934;28;45281;-74
2022/10/10 00:36:28;;;;;;;1.73;1.60;;;18.00;55.10;;;;;;5089323;28;45208;-74
2022/10/10 00:38:55;;;;;;;1.80;1.70;;;18.00;55.10;;;;;;5089223;28;45391;-74
2022/10/10 00:41:22;;;;;;;2.42;1.88;;;18.00;55.10;;;;;;5088796;28;45296;-74
2022/10/10 00:44:03;;;;;;;3.22;1.92;;;18.00;55.10;;;;;;5088721;28;45338;-75
2022/10/10 00:46:30;;;;;;;1.73;1.63;;;18.00;55.10;;;;;;5088905;28;45320;-74
2022/10/10 00:48:57;;;;;;;2.47;1.73;;;18.00;55.10;;;;;;5089109;28;45311;-74
2022/10/10 00:51:24;;;;;;;1.90;1.55;;;18.00;55.10;;;;;;5088415;28;46356;-74
2022/10/10 00:53:55;;;;;;;1.88;1.75;;;18.00;55.10;;;;;;5088580;28;45297;-74
2022/10/10 00:56:24;;;;;;;2.33;2.00;;;18.00;55.10;;;;;;5088696;28;45241;-74
2022/10/10 00:58:52;;;;;;;2.28;1.65;;;18.00;55.10;;;;;;5088990;28;45232;-74
2022/10/10 01:01:18;;;;;;;1.70;1.58;;;18.00;55.10;;;;;;5088333;28;46431;-75
2022/10/10 01:03:45;;;;;;;1.90;1.80;;;17.90;55.10;;;;;;5088491;28;45251;-75
2022/10/10 01:06:12;;;;;;;1.75;1.65;;;18.00;55.20;;;;;;5088853;28;45261;-74
2022/10/10 01:08:39;;;;;;;1.70;1.60;;;17.90;55.10;;;;;;5088582;28;45445;-74
2022/10/10 01:11:16;;;;;;;2.13;1.83;;;17.90;55.10;;;;;;5088024;28;46456;-74
2022/10/10 01:13:46;;;;;;;2.10;1.95;;;17.90;55.10;;;;;;5088266;28;45222;-73
2022/10/10 01:16:16;;;;;;;2.55;1.40;;;18.00;55.20;;;;;;5087765;28;45326;-75
2022/10/10 01:18:46;;;;;;;1.92;1.80;;;17.90;55.10;;;;;;5087962;28;45195;-75
2022/10/10 01:21:20;;;;;;;2.40;1.70;;;17.90;55.10;;;;;;5088036;28;46390;-75
2022/10/10 01:24:25;;;;;;;1.98;1.80;;;17.90;55.10;;;;;;5087092;27;45281;-74
2022/10/10 01:27:26;;;;;;;1.70;1.60;;;17.90;55.10;;;;;;5088258;28;45312;-74
2022/10/10 01:29:55;;;;;;;1.95;1.70;;;17.90;55.10;;;;;;5088352;28;45132;-74
2022/10/10 01:32:26;;;;;;;1.92;1.60;;;17.90;55.10;;;;;;5088022;28;45341;-74
2022/10/10 01:34:58;;;;;;;2.00;1.80;;;17.90;55.10;;;;;;5088047;28;45201;-74
2022/10/10 01:37:28;;;;;;;1.63;1.52;;;17.90;55.20;;;;;;5087972;28;45317;-74
2022/10/10 01:40:07;;;;;;;1.75;1.65;;;17.90;55.20;;;;;;5088207;28;45450;-74
2022/10/10 01:42:36;;;;;;;1.85;1.73;;;17.90;55.20;;;;;;5087358;28;45421;-75
2022/10/10 01:45:06;;;;;;;1.70;1.60;;;17.90;55.20;;;;;;5087857;28;45165;-74
2022/10/10 01:47:33;;;;;;;1.65;1.55;;;17.80;55.20;;;;;;5085347;28;45400;-74
2022/10/10 01:50:01;;;;;;;1.70;1.60;;;17.90;55.20;;;;;;5087219;28;45320;-74
2022/10/10 01:52:33;;;;;;;2.42;1.65;;;17.90;55.20;;;;;;5087037;28;45220;-74
2022/10/10 01:55:08;;;;;;;1.98;1.73;;;17.80;55.20;;;;;;5087597;28;45384;-74
2022/10/10 01:57:39;;;;;;;1.73;1.63;;;17.90;55.20;;;;;;5087792;28;45324;-74
2022/10/10 02:00:09;;;;;;;1.70;1.60;;;17.80;55.10;;;;;;5087898;28;45630;-74
2022/10/10 02:02:42;;;;;;;1.80;1.70;;;17.80;55.10;;;;;;5087409;28;46386;-75
2022/10/10 02:05:13;;;;;;;1.60;1.50;;;17.90;55.20;;;;;;5087478;28;45373;-74
2022/10/10 02:07:41;;;;;;;2.58;1.50;;;17.80;55.10;;;;;;5087502;28;45204;-75
2022/10/10 02:10:08;;;;;;;2.17;1.70;;;17.80;55.10;;;;;;5087745;28;45416;-75
2022/10/10 02:12:35;;;;;;;2.60;1.65;;;17.80;55.20;;;;;;5087329;28;45368;-74
2022/10/10 02:15:05;;;;;;;1.95;1.75;;;17.80;55.20;;;;;;5087314;28;45259;-74
2022/10/10 02:17:33;;;;;;;1.58;1.48;;;17.80;55.80;;;;;;5087350;28;45315;-74
2022/10/10 02:20:00;;;;;;;1.70;1.60;;;17.80;55.20;;;;;;5087516;28;45451;-75
2022/10/10 02:22:27;;;;;;;1.90;1.70;;;17.80;55.20;;;;;;5087420;28;45533;-74
2022/10/10 02:24:54;;;;;;;2.00;1.65;;;17.80;55.30;;;;;;5087347;28;45234;-74
2022/10/10 02:27:23;;;;;;;1.50;1.33;;;17.80;55.30;;;;;;5087331;28;45192;-75
2022/10/10 02:29:50;;;;;;;1.88;1.77;;;17.80;55.20;;;;;;5087437;28;45352;-74
2022/10/10 02:32:19;;;;;;;1.90;1.70;;;17.80;55.30;;;;;;5087065;28;47567;-74
2022/10/10 02:34:49;;;;;;;1.70;1.60;;;17.80;56.00;;;;;;5086714;28;45310;-75
2022/10/10 02:37:16;;;;;;;2.58;1.85;;;17.80;55.30;;;;;;5087255;28;45258;-74
2022/10/10 02:39:44;;;;;;;1.60;1.50;;;17.80;55.30;;;;;;5087651;28;45197;-74
2022/10/10 02:42:11;;;;;;;2.63;1.83;;;17.80;55.30;;;;;;5086646;28;46384;-74
2022/10/10 02:44:38;;;;;;;1.77;1.65;;;17.70;55.30;;;;;;5086987;28;45430;-75
2022/10/10 02:47:05;;;;;;;1.65;1.55;;;17.70;55.30;;;;;;5086501;28;45392;-74
2022/10/10 02:49:33;;;;;;;1.70;1.60;;;17.80;55.30;;;;;;5087288;28;45254;-74
2022/10/10 02:52:01;;;;;;;1.92;1.70;;;17.70;55.40;;;;;;5086852;28;45206;-74
2022/10/10 02:54:28;;;;;;;1.65;1.55;;;17.70;55.40;;;;;;5086729;28;45357;-74
2022/10/10 02:56:55;;;;;;;1.75;1.63;;;17.80;55.50;;;;;;5086973;28;45280;-74
2022/10/10 02:59:22;;;;;;;1.75;1.42;;;17.70;55.40;;;;;;5087074;28;45435;-74
2022/10/10 03:01:49;;;;;;;2.17;1.63;;;17.70;55.40;;;;;;5086498;28;46354;-74
2022/10/10 03:04:16;;;;;;;2.15;1.92;;;17.70;55.40;;;;;;5086716;28;45229;-74
2022/10/10 03:06:43;;;;;;;1.83;1.73;;;17.70;55.40;;;;;;5086757;28;45374;-74
2022/10/10 03:09:11;;;;;;;1.67;1.40;;;17.70;55.40;;;;;;5086883;28;45454;-74
2022/10/10 03:11:38;;;;;;;1.80;1.70;;;17.70;55.40;;;;;;5086517;28;45215;-74
2022/10/10 03:14:05;;;;;;;1.67;1.58;;;17.70;55.50;;;;;;5086471;28;45216;-74
2022/10/10 03:16:32;;;;;;;2.13;1.92;;;17.70;55.50;;;;;;5086763;28;45387;-74
2022/10/10 03:18:58;;;;;;;2.30;1.83;;;17.70;55.50;;;;;;5086966;28;45360;-74
2022/10/10 03:21:25;;;;;;;1.90;1.42;;;17.70;55.50;;;;;;5086630;28;45404;-73
2022/10/10 03:23:52;;;;;;;2.00;1.80;;;17.70;55.50;;;;;;5086454;28;45212;-74
2022/10/10 03:26:20;;;;;;;1.77;1.50;;;17.70;55.50;;;;;;5086683;28;45286;-74
2022/10/10 03:28:47;;;;;;;2.45;1.35;;;17.70;55.50;;;;;;5086690;28;45356;-74
2022/10/10 03:31:14;;;;;;;1.55;1.45;;;17.70;55.50;;;;;;5085768;28;46749;-74
2022/10/10 03:33:41;;;;;;;2.42;1.65;;;17.70;55.50;;;;;;5086241;28;45311;-74
2022/10/10 03:36:08;;;;;;;2.05;1.70;;;17.70;55.50;;;;;;5086364;28;45244;-74
2022/10/10 03:38:35;;;;;;;1.67;1.58;;;17.70;55.50;;;;;;5086611;28;45197;-74
2022/10/10 03:41:01;;;;;;;1.73;1.58;;;17.70;55.50;;;;;;5086095;28;46467;-75
2022/10/10 03:43:30;;;;;;;1.67;1.52;;;17.70;56.20;;;;;;5085949;28;45300;-74
2022/10/10 03:45:56;;;;;;;1.75;1.65;;;17.70;55.60;;;;;;5087246;27;45475;-74
2022/10/10 03:48:23;;;;;;;1.75;1.50;;;17.70;55.60;;;;;;5090110;28;45424;-74
2022/10/10 03:50:50;;;;;;;1.55;1.45;;;17.70;55.60;;;;;;5089485;28;46525;-74
2022/10/10 03:53:17;;;;;;;1.73;1.63;;;17.70;55.60;;;;;;5089625;28;45404;-74
2022/10/10 03:55:44;;;;;;;1.63;1.45;;;17.70;55.60;;;;;;5089932;28;45394;-74
2022/10/10 03:58:11;;;;;;;1.80;1.70;;;17.70;55.60;;;;;;5089957;28;45384;-74
2022/10/10 04:00:39;;;;;;;2.03;1.77;;;17.70;55.60;;;;;;5089309;28;45218;-74
2022/10/10 04:03:06;;;;;;;1.40;1.30;;;17.70;55.60;;;;;;5089596;28;45255;-74
2022/10/10 04:05:34;;;;;;;1.55;1.45;;;17.70;56.20;;;;;;5089568;28;45291;-74
2022/10/10 04:08:01;;;;;;;1.92;1.40;;;17.70;55.60;;;;;;5089629;28;45320;-74
2022/10/10 04:10:27;;;;;;;1.60;1.50;;;17.60;55.60;;;;;;5089266;28;45429;-74
2022/10/10 04:12:54;;;;;;;1.70;1.60;;;17.60;55.60;;;;;;5089286;28;45260;-73
2022/10/10 04:15:21;;;;;;;1.98;1.70;;;17.60;55.60;;;;;;5088532;28;45210;-74
2022/10/10 04:17:49;;;;;;;1.50;1.40;;;17.60;55.70;;;;;;5089451;28;45332;-74
2022/10/10 04:20:16;;;;;;;1.55;1.45;;;17.60;55.70;;;;;;5089179;28;46476;-74
2022/10/10 04:22:43;;;;;;;1.58;1.48;;;17.60;55.70;;;;;;5089296;28;45176;-74
2022/10/10 04:25:10;;;;;;;1.67;1.58;;;17.70;56.30;;;;;;5089356;28;45199;-74
2022/10/10 04:27:37;;;;;;;1.60;1.50;;;17.70;55.70;;;;;;5089392;28;45332;-74
2022/10/10 04:30:05;;;;;;;1.50;1.40;;;17.70;55.70;;;;;;5088974;28;45475;-74
2022/10/10 04:32:32;;;;;;;1.90;1.80;;;17.70;55.70;;;;;;5089001;28;45345;-74
2022/10/10 04:35:00;;;;;;;1.85;1.70;;;17.70;55.70;;;;;;5088998;28;45201;-74
2022/10/10 04:37:27;;;;;;;1.90;1.70;;;17.70;55.70;;;;;;5089116;28;45313;-74
2022/10/10 04:39:54;;;;;;;2.40;1.67;;;17.60;55.70;;;;;;5088477;28;46326;-74
2022/10/10 04:42:20;;;;;;;1.88;1.65;;;17.70;56.30;;;;;;5088589;28;45324;-74
2022/10/10 04:44:47;;;;;;;1.60;1.50;;;17.70;55.70;;;;;;5088872;28;45311;-74
2022/10/10 04:47:14;;;;;;;1.45;1.33;;;17.60;55.60;;;;;;5089234;28;45431;-74
2022/10/10 04:49:41;;;;;;;2.53;1.63;;;17.70;55.70;;;;;;5088555;28;46410;-74
2022/10/10 04:52:10;;;;;;;1.65;1.52;;;17.60;55.70;;;;;;5088711;28;45303;-74
2022/10/10 04:54:37;;;;;;;1.50;1.40;;;17.60;55.70;;;;;;5088876;28;45292;-74
2022/10/10 04:57:04;;;;;;;2.45;1.42;;;17.60;55.70;;;;;;5088964;27;45357;-73
2022/10/10 04:59:30;;;;;;;1.65;1.55;;;17.60;55.70;;;;;;5087747;28;45325;-74
2022/10/10 05:01:57;;;;;;;1.52;1.40;;;17.70;55.70;;;;;;5088399;28;45400;-74
2022/10/10 05:04:24;;;;;;;1.60;1.50;;;17.60;55.70;;;;;;5088513;28;45360;-75
2022/10/10 05:06:51;;;;;;;1.42;1.33;;;17.60;55.70;;;;;;5088724;28;45582;-74
2022/10/10 05:09:19;;;;;;;1.60;1.50;;;17.60;55.70;;;;;;5088281;28;45198;-74
2022/10/10 05:11:46;;;;;;;2.25;1.50;;;17.60;55.80;;;;;;5088364;28;45205;-74
2022/10/10 05:14:13;;;;;;;1.85;1.60;;;17.60;55.70;;;;;;5088555;28;45386;-74
2022/10/10 05:16:40;;;;;;;2.05;1.50;;;17.60;55.70;;;;;;5088807;28;45410;-74
2022/10/10 05:19:07;;;;;;;1.92;1.70;;;17.60;55.70;;;;;;5088621;28;45442;-74
2022/10/10 05:21:34;;;;;;;1.50;1.40;;;17.60;55.80;;;;;;5088445;28;45222;-74
2022/10/10 05:24:01;;;;;;;1.60;1.50;;;17.60;55.80;;;;;;5088778;28;45192;-74
2022/10/10 05:26:30;;;;;;;1.55;1.45;;;17.60;55.80;;;;;;5088506;28;45331;-74
2022/10/10 05:28:57;;;;;;;1.40;1.30;;;17.60;55.80;;;;;;5088149;28;46400;-74
2022/10/10 05:31:24;;;;;;;1.88;1.77;;;17.60;55.80;;;;;;5088338;28;45289;-74
2022/10/10 05:33:51;;;;;;;1.70;1.60;;;17.60;55.80;;;;;;5088123;28;45356;-74
2022/10/10 05:36:18;;;;;;;1.70;1.60;;;17.60;55.80;;;;;;5088072;28;45380;-74
2022/10/10 05:38:44;;;;;;;2.00;1.65;;;17.60;55.80;;;;;;5088164;28;47294;-74
2022/10/10 05:41:11;;;;;;;1.80;1.55;;;17.60;56.40;;;;;;5087857;28;45490;-73
2022/10/10 05:43:40;;;;;;;1.52;1.42;;;17.60;55.80;;;;;;5087224;28;45172;-74
2022/10/10 05:46:06;;;;;;;2.10;1.50;;;17.60;55.80;;;;;;5088854;28;45177;-74
2022/10/10 05:48:33;;;;;;;1.58;1.48;;;17.60;55.80;;;;;;5088170;28;45705;-74
2022/10/10 05:51:00;;;;;;;2.03;1.55;;;17.60;55.80;;;;;;5088781;28;45316;-74
2022/10/10 05:53:28;;;;;;;2.83;1.80;;;17.60;55.80;;;;;;5088596;28;45337;-74
2022/10/10 05:55:55;;;;;;;1.80;1.52;;;17.60;55.80;;;;;;5087266;28;45199;-73
2022/10/10 05:58:23;;;;;;;1.92;1.63;;;17.60;55.90;;;;;;5088047;28;45389;-73
2022/10/10 06:00:51;;;;;;;1.45;1.35;;;17.60;55.90;;;;;;5087811;28;45325;-73
2022/10/10 06:03:18;;;;;;;1.38;1.27;;;17.60;55.90;;;;;;5088146;28;45483;-74
2022/10/10 06:05:47;;;;;;;1.55;1.45;;;17.60;55.90;;;;;;5088162;28;45517;-74
2022/10/10 06:08:14;;;;;;;1.45;1.35;;;17.60;56.00;;;;;;5087222;28;45453;-73
2022/10/10 06:10:41;;;;;;;1.67;1.55;;;17.60;55.90;;;;;;5087466;28;45348;-74
2022/10/10 06:13:08;;;;;;;1.70;1.60;;;17.60;56.00;;;;;;5087634;28;45265;-73
2022/10/10 06:15:35;;;;;;;1.70;1.60;;;17.60;56.00;;;;;;5087992;28;45131;-73
2022/10/10 06:18:04;;;;;;;1.80;1.58;;;17.60;56.00;;;;;;5087373;28;45297;-74
2022/10/10 06:20:31;;;;;;;1.67;1.58;;;17.60;56.00;;;;;;5087289;28;45403;-75
2022/10/10 06:22:57;;;;;;;2.28;1.63;;;17.60;56.00;;;;;;5087284;28;45381;-74
2022/10/10 06:25:24;;;;;;;2.25;1.50;;;17.60;56.00;;;;;;5087925;28;45400;-73
2022/10/10 06:27:51;;;;;;;2.00;1.80;;;17.60;56.00;;;;;;5086269;28;45494;-74
2022/10/10 06:30:18;;;;;;;2.25;1.40;;;17.60;56.00;;;;;;5087429;28;45340;-74
2022/10/10 06:32:45;;;;;;;1.45;1.35;;;17.60;56.00;;;;;;5087507;28;45299;-74
2022/10/10 06:35:13;;;;;;;1.92;1.80;;;17.60;56.60;;;;;;5087414;28;45319;-73
2022/10/10 06:37:40;;;;;;;2.17;1.70;;;17.60;56.00;;;;;;5066877;28;46333;-74
2022/10/10 06:40:07;;;;;;;1.85;1.60;;;17.60;56.00;;;;;;5067061;28;45210;-74
2022/10/10 06:42:34;;;;;;;1.63;1.50;;;17.60;56.00;;;;;;5065495;28;45333;-74
2022/10/10 06:45:02;;;;;;;1.95;1.75;;;17.60;56.00;;;;;;5067362;28;45296;-74
2022/10/10 06:47:29;;;;;;;1.65;1.55;;;17.60;56.00;;;;;;5066701;28;46449;-74
2022/10/10 06:49:56;;;;;;;1.85;1.55;;;17.60;56.00;;;;;;5066808;28;45186;-74
2022/10/10 06:52:24;;;;;;;2.28;2.08;;;17.60;56.00;;;;;;5066837;28;45380;-74
2022/10/10 06:54:51;;;;;;;3.00;2.03;;;17.60;56.00;;;;;;5067009;28;45404;-74
2022/10/10 06:57:18;;;;;;;1.98;1.70;;;17.60;56.00;;;;;;5066536;28;46622;-74
2022/10/10 06:59:45;;;;;;;1.90;1.80;;;17.60;56.10;;;;;;5066935;28;45198;-74
2022/10/10 07:02:12;;;;;;;2.35;1.85;;;17.60;56.10;;;;;;5077109;28;45194;-75
2022/10/10 07:04:39;;;;;;;4.10;1.70;;;17.60;56.10;;;;;;5088586;28;45385;-74
2022/10/10 07:07:06;;;;;;;2.35;2.00;;;17.60;56.10;;;;;;5087026;28;46398;-73
2022/10/10 07:09:34;;;;;;;1.98;1.70;;;17.60;56.00;;;;;;5086996;28;45186;-74
2022/10/10 07:12:01;;;;;;;4.22;2.08;;;17.60;56.00;;;;;;5086138;28;45205;-73
2022/10/10 07:14:28;;;;;;;2.67;1.80;;;17.60;56.00;;;;;;5086837;28;45325;-74
2022/10/10 07:16:55;;;;;;;2.95;1.85;;;17.60;56.00;;;;;;5086932;28;45479;-74
2022/10/10 07:19:23;;;;;;;4.00;2.10;;;17.60;56.00;;;;;;5086654;28;45249;-73
2022/10/10 07:21:50;;;;;;;2.83;1.90;;;17.60;56.00;;;;;;5088245;28;45221;-74
2022/10/10 07:24:17;;;;;;;2.70;2.20;;;17.60;56.00;;;;;;5089943;28;45439;-75
2022/10/10 07:26:45;;;;;;;2.83;1.77;;;17.60;56.10;;;;;;5089359;28;45261;-74
2022/10/10 07:29:12;;;;;;;2.15;1.92;;;17.60;56.00;;;;;;5089564;28;45428;-74
2022/10/10 07:31:39;;;;;;;1.80;1.70;;;17.60;56.10;;;;;;5089952;28;45174;-74
2022/10/10 07:34:06;;;;;;;2.22;2.10;;;17.60;56.10;;;;;;5090264;28;45404;-74
2022/10/10 07:36:33;;;;;;;3.85;1.98;;;17.60;56.20;;;;;;5089496;28;47609;-74
2022/10/10 07:39:00;;;;;;;3.70;2.10;;;17.70;56.30;;;;;;5090149;28;45264;-74
2022/10/10 07:41:27;;;;;;;2.30;2.10;;;17.70;57.00;;;;;;5089276;28;45284;-74
2022/10/10 07:43:55;;;;;;;2.33;2.05;;;17.70;56.50;;;;;;5087234;28;45280;-74
2022/10/10 07:46:22;;;;;;;2.42;2.17;;;17.70;56.50;;;;;;5089697;28;46971;-74
2022/10/10 07:48:49;;;;;;;5.75;2.60;;;17.70;56.50;;;;;;5089774;28;45478;-74
2022/10/10 07:51:16;;;;;;;2.70;2.30;;;17.70;56.60;;;;;;5089843;28;45391;-74
2022/10/10 07:53:43;;;;;;;4.80;2.67;;;17.70;56.50;;;;;;5089546;28;45412;-73
2022/10/10 07:56:10;;;;;;;4.50;2.92;;;17.80;56.50;;;;;;5088521;28;45535;-73
2022/10/10 07:58:37;;;;;;;5.03;3.28;;;17.80;56.50;;;;;;5089021;28;45192;-73
2022/10/10 08:01:06;;;;;;;4.15;3.15;;;17.80;56.50;;;;;;5089555;28;45292;-73
2022/10/10 08:03:33;;;;;;;4.43;3.15;;;17.80;56.50;;;;;;5088696;28;45651;-73
2022/10/10 08:06:02;;;;;;;7.53;3.60;;;17.80;56.50;;;;;;5089403;28;46711;-73
2022/10/10 08:08:29;;;;;;;4.97;3.70;;;17.80;56.40;;;;;;5089119;28;45449;-73
2022/10/10 08:10:56;;;;;;;5.63;3.90;;;17.90;56.50;;;;;;5089281;28;45445;-73
2022/10/10 08:13:23;;;;;;;4.38;3.95;;;17.90;56.50;;;;;;5089347;28;45315;-72
2022/10/10 08:15:50;;;;;;;8.13;4.38;;;17.90;56.50;;;;;;5070297;28;46390;-72
2022/10/10 08:18:19;;;;;;;6.57;4.40;;;17.90;56.50;;;;;;5088961;28;45217;-73
2022/10/10 08:20:45;;;;;;;4.82;3.90;;;17.90;56.50;;;;;;5088976;28;45316;-74
2022/10/10 08:23:12;;;;;;;5.90;3.85;;;18.00;56.50;;;;;;5089097;28;45410;-74
2022/10/10 08:25:39;;;;;;;5.40;3.67;;;18.00;56.50;;;;;;5089038;28;46680;-74
2022/10/10 08:28:06;;;;;;;5.10;3.90;;;18.00;56.50;;;;;;5088152;28;45182;-74
2022/10/10 08:30:33;;;;;;;7.55;3.70;;;18.00;56.60;;;;;;5088810;28;45186;-74
2022/10/10 08:33:00;;;;;;;5.22;3.75;;;18.00;56.60;;;;;;5088312;28;45389;-74
2022/10/10 08:35:28;;;;;;;5.22;3.80;;;18.00;56.70;;;;;;5086429;28;46432;-74
2022/10/10 08:37:55;;;;;;;5.03;3.80;;;18.10;56.80;;;;;;5079879;28;45304;-74
2022/10/10 08:40:22;;;;;;;3.95;3.33;;;18.10;57.00;;;;;;5088080;28;45197;-74
2022/10/10 08:42:51;;;;;;;5.75;3.20;;;18.10;57.00;;;;;;5087775;28;45466;-74
2022/10/10 08:45:19;;;;;;;4.78;3.45;;;18.10;57.30;;;;;;5088102;28;46538;-74
2022/10/10 08:47:48;;;;;;;4.88;3.10;;;18.10;57.30;;;;;;5087584;28;45435;-75
2022/10/10 08:50:16;;;;;;;6.25;3.42;;;18.20;57.50;;;;;;5088938;28;45278;-74
2022/10/10 08:52:47;;;;;;;5.55;3.40;;;18.20;57.60;;;;;;5088717;28;45431;-74
2022/10/10 08:55:16;;;;;;;5.57;3.70;;;18.20;57.50;;;;;;5088844;28;45511;-74
2022/10/10 08:57:48;;;;;;;6.18;3.33;;;18.20;57.60;;;;;;5087917;28;45257;-74
2022/10/10 09:00:16;;;;;;;5.38;3.20;;;18.20;57.80;;;;;;5088531;28;45268;-74
2022/10/10 09:02:47;;;;;;;4.05;3.17;;;18.20;57.90;;;;;;5087183;28;45440;-74
2022/10/10 09:05:16;;;;;;;6.50;3.30;;;18.30;58.70;;;;;;5088146;28;46389;-74
2022/10/10 09:07:56;;;;;;;4.90;2.90;;;18.30;58.20;;;;;;5087813;28;45482;-74
2022/10/10 09:10:25;;;;;;;4.35;2.58;;;18.30;58.90;;;;;;5088168;28;45663;-74
2022/10/10 09:12:56;;;;;;;3.28;2.47;;;18.40;58.40;;;;;;5088852;28;45300;-74
2022/10/10 09:15:25;;;;;;;4.15;2.30;;;18.40;58.50;;;;;;5088417;28;45553;-74
2022/10/10 09:17:55;;;;;;;3.28;2.50;;;18.40;58.60;;;;;;5075343;28;45313;-74
2022/10/10 09:20:31;;;;;;;3.92;2.10;;;18.50;58.70;;;;;;5084783;28;45284;-74
2022/10/10 09:23:01;;;;;;;3.55;2.30;;;18.50;58.90;;;;;;5088116;28;45511;-74
2022/10/10 09:25:30;;;;;;;2.63;2.13;;;18.50;58.90;;;;;;5087835;28;46361;-75
2022/10/10 09:28:01;;;;;;;3.30;2.00;;;18.60;59.10;;;;;;5087369;28;45198;-74
2022/10/10 09:30:27;;;;;;;2.67;1.95;;;18.60;59.30;;;;;;5087793;28;45293;-74
2022/10/10 09:32:57;;;;;;;2.92;2.17;;;18.60;59.20;;;;;;5088382;28;45324;-74
2022/10/10 09:35:25;;;;;;;4.78;2.40;;;18.70;59.40;;;;;;5087657;28;46129;-74
2022/10/10 09:37:53;;;;;;;2.08;1.85;;;18.70;59.40;;;;;;5087869;28;45311;-74
2022/10/10 09:40:25;;;;;;;2.80;1.90;;;18.70;59.40;;;;;;5088062;28;45182;-74
2022/10/10 09:42:52;;;;;;;3.03;1.80;;;18.70;59.30;;;;;;5087697;28;45311;-74
2022/10/10 09:45:20;;;;;;;3.67;1.98;;;18.80;59.20;;;;;;5087006;28;45438;-74
2022/10/10 09:47:48;;;;;;;2.50;1.85;;;18.80;59.30;;;;;;5087125;28;45181;-74
2022/10/10 09:50:15;;;;;;;2.08;1.75;;;18.80;59.10;;;;;;5088171;28;45230;-74
2022/10/10 09:52:42;;;;;;;3.08;2.03;;;18.80;59.20;;;;;;5085473;28;45323;-74
2022/10/10 09:55:18;;;;;;;2.00;1.80;;;18.90;59.10;;;;;;5087710;28;45447;-75
2022/10/10 09:57:47;;;;;;;2.00;1.77;;;18.90;59.10;;;;;;5087664;28;45196;-76
2022/10/10 10:00:26;;;;;;;3.38;1.77;;;18.90;59.00;;;;;;5087866;28;45190;-75
2022/10/10 10:03:05;;;;;;;2.25;1.90;;;19.00;58.90;;;;;;5087781;28;45292;-74
2022/10/10 10:05:32;;;;;;;1.70;1.60;;;19.00;58.70;;;;;;5087527;28;47424;-75
2022/10/10 10:07:58;;;;;;;1.92;1.80;;;19.00;58.90;;;;;;5087540;28;45245;-75
2022/10/10 10:10:26;;;;;;;2.42;1.77;;;19.10;58.80;;;;;;5087648;28;45313;-74
2022/10/10 10:12:54;;;;;;;3.55;1.80;;;19.10;58.70;;;;;;5087578;28;45637;-74
2022/10/10 10:15:22;;;;;;;1.92;1.45;;;19.10;58.60;;;;;;5087206;28;45201;-74
2022/10/10 10:18:05;;;;;;;1.60;1.50;;;19.20;58.40;;;;;;5087411;28;45216;-75
2022/10/10 10:20:32;;;;;;;1.70;1.60;;;19.20;58.40;;;;;;5086825;28;45200;-77
2022/10/10 10:22:59;;;;;;;2.15;1.40;;;19.30;58.40;;;;;;5087878;28;45201;-76
2022/10/10 10:25:31;;;;;;;2.20;1.50;;;19.30;58.30;;;;;;5087301;28;45363;-74
2022/10/10 10:28:19;;;;;;;2.47;1.40;;;19.30;58.40;;;;;;5087340;28;45187;-75
2022/10/10 10:30:46;;;;;;;2.10;1.45;;;19.40;58.20;;;;;;5087439;28;45351;-75
2022/10/10 10:33:17;;;;;;;2.17;1.50;;;19.50;58.10;;;;;;5086672;28;45338;-74
2022/10/10 10:35:46;;;;;;;2.00;1.65;;;19.50;58.00;;;;;;5087047;28;47294;-74
2022/10/10 10:38:22;;;;;;;1.48;1.20;;;19.60;58.20;;;;;;5087090;28;45298;-74
2022/10/10 10:40:55;;;;;;;2.67;1.80;;;19.60;58.10;;;;;;5087163;28;45251;-75
2022/10/10 10:43:31;;;;;;;2.47;1.33;;;19.70;58.20;;;;;;5087104;28;45292;-75
2022/10/10 10:46:10;;;;;;;1.85;1.48;;;19.80;58.20;;;;;;5087150;28;45617;-75
2022/10/10 10:48:40;;;;;;;1.98;1.30;;;19.80;58.20;;;;;;5086954;28;45215;-75
2022/10/10 10:51:14;;;;;;;2.25;1.42;;;19.90;58.10;;;;;;5087075;28;45319;-75
2022/10/10 10:53:44;;;;;;;2.47;1.80;;;19.90;57.80;;;;;;5087143;28;45304;-76
2022/10/10 10:56:16;;;;;;;1.80;1.55;;;20.00;57.60;;;;;;5092194;27;46383;-74
2022/10/10 10:59:07;;;;;;;1.65;1.38;;;20.00;57.60;;;;;;5093590;28;45265;-74
2022/10/10 11:01:36;;;;;;;2.05;1.50;;;20.10;57.50;;;;;;5090032;28;45197;-75
2022/10/10 11:04:04;;;;;;;2.50;1.40;;;20.20;57.20;;;;;;5094022;28;45553;-75
2022/10/10 11:06:44;;;;;;;1.75;1.30;;;20.20;57.10;;;;;;5093366;28;45208;-75
2022/10/10 11:09:13;;;;;;;2.45;1.33;;;20.30;57.00;;;;;;5093368;28;45266;-74
2022/10/10 11:11:49;;;;;;;1.45;1.10;;;20.40;56.80;;;;;;5093787;28;45325;-76
2022/10/10 11:14:24;;;;;;;1.48;1.35;;;20.40;56.70;;;;;;5093863;28;45134;-74
2022/10/10 11:16:52;;;;;;;1.50;1.40;;;20.50;56.70;;;;;;5093422;28;46401;-73
2022/10/10 11:19:25;;;;;;;1.95;1.30;;;20.60;56.60;;;;;;5093489;28;45307;-76
2022/10/10 11:21:54;;;;;;;1.55;1.40;;;20.60;56.50;;;;;;5093534;28;45194;-76
2022/10/10 11:24:29;;;;;;;1.50;1.40;;;20.70;56.40;;;;;;5093352;28;45312;-74
2022/10/10 11:26:57;;;;;;;2.35;1.50;;;20.80;56.40;;;;;;5093368;28;47329;-74
2022/10/10 11:29:27;;;;;;;1.83;1.50;;;20.80;56.30;;;;;;5093733;28;45335;-74
2022/10/10 11:31:55;;;;;;;1.20;1.10;;;20.80;56.30;;;;;;5093357;28;45197;-74
2022/10/10 11:34:24;;;;;;;1.88;1.45;;;20.90;56.40;;;;;;5092553;28;45510;-75
2022/10/10 11:36:51;;;;;;;2.58;1.40;;;20.90;56.50;;;;;;5092399;28;45207;-73
2022/10/10 11:39:19;;;;;;;1.90;1.23;;;21.00;56.50;;;;;;5093209;28;45190;-76
2022/10/10 11:41:49;;;;;;;2.25;1.30;;;21.00;56.50;;;;;;5092655;28;45466;-75
2022/10/10 11:44:18;;;;;;;2.15;1.50;;;21.10;56.50;;;;;;5092899;28;45559;-75
2022/10/10 11:46:49;;;;;;;1.77;1.30;;;21.10;56.60;;;;;;5092606;28;45470;-75
2022/10/10 11:49:17;;;;;;;2.33;1.60;;;21.20;56.50;;;;;;5093220;28;45365;-75
2022/10/10 11:52:03;;;;;;;1.33;1.13;;;21.30;56.60;;;;;;5093003;28;45188;-75
2022/10/10 11:54:33;;;;;;;1.85;1.23;;;21.30;56.60;;;;;;5093046;28;45483;-75
2022/10/10 11:57:01;;;;;;;2.53;1.38;;;21.30;56.50;;;;;;5092601;28;45673;-75
2022/10/10 11:59:30;;;;;;;1.58;1.48;;;21.40;56.60;;;;;;5092587;28;45245;-75
2022/10/10 12:02:00;;;;;;;2.30;1.40;;;21.40;56.50;;;;;;5092640;28;45471;-75
2022/10/10 12:04:33;;;;;;;1.48;1.20;;;21.50;56.50;;;;;;5092976;28;45258;-75
2022/10/10 12:07:02;;;;;;;2.70;1.38;;;21.50;56.40;;;;;;5090183;27;45391;-75
2022/10/10 12:09:30;;;;;;;1.42;1.30;;;21.60;57.00;;;;;;5089178;28;45186;-75
2022/10/10 12:11:57;;;;;;;2.00;1.70;;;21.60;56.40;;;;;;5089373;28;45336;-75
2022/10/10 12:14:25;;;;;;;1.80;1.30;;;21.70;56.40;;;;;;5089485;28;45400;-75
2022/10/10 12:16:52;;;;;;;1.27;1.13;;;21.70;56.30;;;;;;5089004;28;46732;-75
2022/10/10 12:19:21;;;;;;;1.92;1.38;;;21.70;56.40;;;;;;5089631;28;45201;-75
2022/10/10 12:21:54;;;;;;;1.35;1.10;;;21.80;56.40;;;;;;5089313;28;45310;-75
2022/10/10 12:24:21;;;;;;;2.42;1.45;;;21.80;56.40;;;;;;5089365;28;45307;-75
2022/10/10 12:27:09;;;;;;;2.50;1.23;;;21.80;56.30;;;;;;5088974;28;46610;-75
2022/10/10 12:29:44;;;;;;;2.35;1.30;;;21.90;56.30;;;;;;5089101;28;45293;-75
2022/10/10 12:32:23;;;;;;;1.52;1.42;;;21.90;56.30;;;;;;5088970;28;45337;-75
2022/10/10 12:34:59;;;;;;;1.95;1.23;;;22.00;56.30;;;;;;5089352;28;45240;-75
2022/10/10 12:37:26;;;;;;;1.65;1.27;;;22.00;56.20;;;;;;5088701;28;45429;-73
2022/10/10 12:40:19;;;;;;;2.67;1.15;;;22.10;56.80;;;;;;5088616;28;45319;-72
2022/10/10 12:43:22;;;;;;;1.25;1.15;;;22.10;56.20;;;;;;5088618;28;45542;-74
2022/10/10 12:46:06;;;;;;;1.60;1.13;;;22.10;56.20;;;;;;5006060;28;45350;-73
2022/10/10 12:48:33;;;;;;;3.45;1.42;;;22.20;56.10;;;;;;5006504;28;46610;-73
2022/10/10 12:51:01;;;;;;;2.55;1.45;;;22.20;56.10;;;;;;5053834;28;45289;-73
2022/10/10 12:53:30;;;;;;;1.55;1.15;;;22.20;56.00;;;;;;5088642;28;45331;-73
2022/10/10 12:55:59;;;;;;;2.60;1.40;;;22.20;56.00;;;;;;5088802;28;45600;-73
2022/10/10 12:58:27;;;;;;;2.10;1.40;;;22.30;56.00;;;;;;5088552;28;46670;-73